createdAt,value
2019-04-06T00:01:24.322Z,30.60
2019-04-06T00:04:16.945Z,30.60
2019-04-06T00:07:09.416Z,30.60
2019-04-06T00:10:01.895Z,30.60
2019-04-06T00:12:55.289Z,30.60
2019-04-06T00:15:47.583Z,30.60
2019-04-06T00:18:39.854Z,30.60
2019-04-06T00:21:33.158Z,30.60
2019-04-06T00:24:25.487Z,30.60
2019-04-06T00:27:17.843Z,30.60
2019-04-06T00:30:10.382Z,30.60
2019-04-06T00:33:06.447Z,30.60
2019-04-06T00:35:59.124Z,30.60
2019-04-06T00:38:51.539Z,30.60
2019-04-06T00:41:43.895Z,30.60
2019-04-06T00:44:36.275Z,30.60
2019-04-06T00:47:28.971Z,30.60
2019-04-06T00:50:21.404Z,30.60
2019-04-06T00:53:13.612Z,30.60
2019-04-06T00:56:06.068Z,30.60
2019-04-06T00:58:58.493Z,30.60
2019-04-06T01:01:50.828Z,30.60
2019-04-06T01:04:44.016Z,30.60
2019-04-06T01:07:36.411Z,30.60
2019-04-06T01:10:28.937Z,30.60
2019-04-06T01:13:21.313Z,30.60
2019-04-06T01:16:13.595Z,30.60
2019-04-06T01:19:06.313Z,30.60
2019-04-06T01:21:58.645Z,30.60
2019-04-06T01:24:51.091Z,30.60
2019-04-06T01:27:43.516Z,30.60
2019-04-06T01:30:35.899Z,30.60
2019-04-06T01:33:28.156Z,30.60
2019-04-06T01:36:20.419Z,30.60
2019-04-06T01:39:12.507Z,30.60
2019-04-06T01:42:04.820Z,30.60
2019-04-06T01:44:57.149Z,30.60
2019-04-06T01:47:49.834Z,30.60
2019-04-06T01:50:42.200Z,30.60
2019-04-06T01:53:34.592Z,30.60
2019-04-06T01:56:27.069Z,30.60
2019-04-06T01:59:19.580Z,30.60
2019-04-06T02:02:32.473Z,30.60
2019-04-06T02:05:24.817Z,30.60
2019-04-06T02:08:17.307Z,30.60
2019-04-06T02:11:10.647Z,30.60
2019-04-06T02:14:02.984Z,30.60
2019-04-06T02:16:55.244Z,30.60
2019-04-06T02:19:48.132Z,30.60
2019-04-06T02:22:40.619Z,30.60
2019-04-06T02:25:32.969Z,30.60
2019-04-06T02:28:25.252Z,30.60
2019-04-06T02:31:22.094Z,30.60
2019-04-06T02:34:32.483Z,30.60
2019-04-06T02:37:51.617Z,30.60
2019-04-06T02:40:48.837Z,30.60
2019-04-06T02:43:40.942Z,30.60
2019-04-06T02:46:34.431Z,30.60
2019-04-06T02:49:26.887Z,30.60
2019-04-06T02:52:19.113Z,30.60
2019-04-06T02:55:11.739Z,30.60
2019-04-06T02:58:03.913Z,30.60
2019-04-06T03:00:57.662Z,30.60
2019-04-06T03:07:24.283Z,30.70
2019-04-06T03:10:17.181Z,30.60
2019-04-06T03:13:09.820Z,30.60
2019-04-06T03:16:02.598Z,30.60
2019-04-06T03:18:55.291Z,30.60
2019-04-06T03:21:47.818Z,30.60
2019-04-06T03:24:40.265Z,30.60
2019-04-06T03:27:34.439Z,30.60
2019-04-06T03:30:27.247Z,30.60
2019-04-06T03:33:20.236Z,30.60
2019-04-06T03:36:14.082Z,30.60
2019-04-06T03:39:08.273Z,30.60
2019-04-06T03:42:01.060Z,30.60
2019-04-06T03:44:53.978Z,30.60
2019-04-06T03:47:46.775Z,30.60
2019-04-06T03:50:39.999Z,30.60
2019-04-06T03:53:34.778Z,30.60
2019-04-06T03:56:27.742Z,30.60
2019-04-06T03:59:20.702Z,30.60
2019-04-06T04:02:13.661Z,30.60
2019-04-06T04:05:07.709Z,30.70
2019-04-06T04:08:00.915Z,30.60
2019-04-06T04:10:53.625Z,30.60
2019-04-06T04:13:47.673Z,30.60
2019-04-06T04:16:40.426Z,30.70
2019-04-06T04:19:33.258Z,30.60
2019-04-06T04:22:25.912Z,30.60
2019-04-06T04:25:18.508Z,30.60
2019-04-06T04:28:11.072Z,30.60
2019-04-06T04:31:03.930Z,30.60
2019-04-06T04:33:56.451Z,30.60
2019-04-06T04:36:49.093Z,30.60
2019-04-06T04:39:41.827Z,30.60
2019-04-06T04:42:35.001Z,30.60
2019-04-06T04:45:29.916Z,30.60
2019-04-06T04:48:22.738Z,30.60
2019-04-06T04:51:15.663Z,30.50
2019-04-06T04:54:08.672Z,30.40
2019-04-06T04:57:01.006Z,30.30
2019-04-06T04:59:54.139Z,30.20
2019-04-06T05:02:46.410Z,30.10
2019-04-06T05:05:39.599Z,30.20
2019-04-06T05:08:31.673Z,30.20
2019-04-06T05:11:24.836Z,30.20
2019-04-06T05:14:33.995Z,30.20
2019-04-06T05:17:27.502Z,30.10
2019-04-06T05:20:19.991Z,30.00
2019-04-06T05:23:12.824Z,29.80
2019-04-06T05:26:10.014Z,29.70
2019-04-06T05:29:07.279Z,29.70
2019-04-06T05:32:03.353Z,29.80
2019-04-06T05:34:58.126Z,29.70
2019-04-06T05:37:56.474Z,29.60
2019-04-06T05:40:49.866Z,29.70
2019-04-06T05:43:44.747Z,29.70
2019-04-06T05:46:38.514Z,29.60
2019-04-06T05:49:45.122Z,29.50
2019-04-06T05:52:41.045Z,29.60
2019-04-06T05:55:34.672Z,29.70
2019-04-06T05:58:27.768Z,29.60
2019-04-06T06:01:21.037Z,29.50
2019-04-06T06:04:14.070Z,29.40
2019-04-06T06:07:07.301Z,29.20
2019-04-06T06:10:01.516Z,29.10
2019-04-06T06:12:56.750Z,29.00
2019-04-06T06:15:50.827Z,28.80
2019-04-06T06:18:44.084Z,28.80
2019-04-06T06:21:37.415Z,28.80
2019-04-06T06:24:34.708Z,28.70
2019-04-06T06:27:26.785Z,28.70
2019-04-06T06:30:20.037Z,28.60
2019-04-06T06:33:12.520Z,28.50
2019-04-06T06:36:07.926Z,28.50
2019-04-06T06:39:00.888Z,28.60
2019-04-06T06:41:55.804Z,28.60
2019-04-06T06:44:51.072Z,28.40
2019-04-06T06:47:44.902Z,28.30
2019-04-06T06:50:38.854Z,28.20
2019-04-06T06:53:32.098Z,28.20
2019-04-06T06:56:25.622Z,28.30
2019-04-06T06:59:20.753Z,28.30
2019-04-06T07:02:13.709Z,28.30
2019-04-06T07:05:06.930Z,28.20
2019-04-06T07:08:04.601Z,28.20
2019-04-06T07:10:57.765Z,28.40
2019-04-06T07:13:51.545Z,28.40
2019-04-06T07:16:44.422Z,28.30
2019-04-06T07:19:37.377Z,28.30
2019-04-06T07:22:30.462Z,28.40
2019-04-06T07:25:23.758Z,28.40
2019-04-06T07:28:16.901Z,28.30
2019-04-06T07:31:09.610Z,28.50
2019-04-06T07:34:03.010Z,28.50
2019-04-06T07:36:55.707Z,28.50
2019-04-06T07:39:48.379Z,28.50
2019-04-06T07:42:41.669Z,28.50
2019-04-06T07:45:34.844Z,28.50
2019-04-06T07:48:27.294Z,28.50
2019-04-06T07:51:20.314Z,28.50
2019-04-06T07:54:13.087Z,28.30
2019-04-06T07:57:07.576Z,28.50
2019-04-06T08:00:03.681Z,28.40
2019-04-06T08:02:59.368Z,28.30
2019-04-06T08:05:54.767Z,28.40
2019-04-06T08:08:48.346Z,28.40
2019-04-06T08:11:43.040Z,28.40
2019-04-06T08:14:39.719Z,28.30
2019-04-06T08:17:32.915Z,28.40
2019-04-06T08:20:27.536Z,28.40
2019-04-06T08:23:21.922Z,28.40
2019-04-06T08:26:15.930Z,28.40
2019-04-06T08:29:08.969Z,28.40
2019-04-06T08:32:02.359Z,28.40
2019-04-06T08:34:55.728Z,28.40
2019-04-06T08:37:48.630Z,28.50
2019-04-06T08:40:41.704Z,28.50
2019-04-06T08:43:35.344Z,28.50
2019-04-06T08:46:29.538Z,28.50
2019-04-06T08:49:22.183Z,28.40
2019-04-06T08:52:15.604Z,28.30
2019-04-06T08:55:08.316Z,28.40
2019-04-06T08:58:01.050Z,28.40
2019-04-06T09:00:53.511Z,28.40
2019-04-06T09:03:49.559Z,28.40
2019-04-06T09:06:42.773Z,28.40
2019-04-06T09:09:35.899Z,28.30
2019-04-06T09:12:30.367Z,28.30
2019-04-06T09:15:24.262Z,28.30
2019-04-06T09:18:18.022Z,28.40
2019-04-06T09:21:11.599Z,28.30
2019-04-06T09:24:04.010Z,28.40
2019-04-06T09:26:56.949Z,28.30
2019-04-06T09:29:51.635Z,28.30
2019-04-06T09:32:44.944Z,28.30
2019-04-06T09:35:38.198Z,28.30
2019-04-06T09:38:33.975Z,28.30
2019-04-06T09:41:27.150Z,28.30
2019-04-06T09:44:36.653Z,28.30
2019-04-06T09:47:45.868Z,28.20
2019-04-06T09:51:06.922Z,28.20
2019-04-06T09:54:14.219Z,28.20
2019-04-06T09:57:23.715Z,28.30
2019-04-06T10:00:42.439Z,28.30
2019-04-06T10:03:57.729Z,28.30
2019-04-06T10:06:58.490Z,28.30
2019-04-06T10:10:04.212Z,28.30
2019-04-06T10:13:20.753Z,28.30
2019-04-06T10:16:38.187Z,28.20
2019-04-06T10:20:08.733Z,28.20
2019-04-06T10:23:32.710Z,28.20
2019-04-06T10:26:35.767Z,28.20
2019-04-06T10:29:54.954Z,28.20
2019-04-06T10:33:07.110Z,28.20
2019-04-06T10:36:15.347Z,28.30
2019-04-06T10:39:23.949Z,28.30
2019-04-06T10:42:41.399Z,28.40
2019-04-06T10:45:44.814Z,28.40
2019-04-06T10:48:54.206Z,28.40
2019-04-06T10:52:21.659Z,28.40
2019-04-06T10:55:51.552Z,28.40
2019-04-06T10:59:03.295Z,28.40
2019-04-06T11:02:28.240Z,28.40
2019-04-06T11:05:39.065Z,28.40
2019-04-06T11:08:52.423Z,28.50
2019-04-06T11:12:09.031Z,28.50
2019-04-06T11:15:22.725Z,28.50
2019-04-06T11:18:37.385Z,28.70
2019-04-06T11:21:55.148Z,28.70
2019-04-06T11:25:02.576Z,28.70
2019-04-06T11:46:18.559Z,29.30
2019-04-06T11:49:34.897Z,29.30
2019-04-06T11:53:00.390Z,29.40
2019-04-06T11:56:02.914Z,29.30
2019-04-06T11:59:04.166Z,29.20
2019-04-06T12:02:30.763Z,29.10
2019-04-06T12:13:04.389Z,29.00
2019-04-06T12:16:22.517Z,28.90
2019-04-06T12:19:33.965Z,28.80
2019-04-06T12:22:39.259Z,29.00
2019-04-06T12:26:07.528Z,29.10
2019-04-06T12:29:22.904Z,28.90
2019-04-06T12:32:45.833Z,29.00
2019-04-06T12:35:56.999Z,29.10
2019-04-06T12:39:11.252Z,29.00
2019-04-06T12:42:29.677Z,29.10
2019-04-06T12:45:40.657Z,29.20
2019-04-06T12:48:52.735Z,29.10
2019-04-06T12:52:00.891Z,29.20
2019-04-06T12:55:08.441Z,29.20
2019-04-06T12:58:31.987Z,29.10
2019-04-06T13:01:56.271Z,29.30
2019-04-06T13:05:16.659Z,29.20
2019-04-06T13:08:26.373Z,29.30
2019-04-06T13:11:40.247Z,29.30
2019-04-06T13:15:09.673Z,29.30
2019-04-06T13:18:11.505Z,29.40
2019-04-06T13:21:10.886Z,29.40
2019-04-06T13:24:11.137Z,29.30
2019-04-06T13:27:20.923Z,29.40
2019-04-06T13:30:44.963Z,29.30
2019-04-06T13:34:04.340Z,29.20
2019-04-06T13:37:13.589Z,29.30
2019-04-06T13:40:26.134Z,29.20
2019-04-06T13:43:39.091Z,30.30
2019-04-06T13:46:48.637Z,29.30
2019-04-06T13:49:58.178Z,29.20
2019-04-06T13:53:19.093Z,29.20
2019-04-06T13:56:20.815Z,29.30
2019-04-06T13:59:30.310Z,29.20
2019-04-06T14:02:41.296Z,29.30
2019-04-06T14:06:04.565Z,29.30
2019-04-06T14:09:05.216Z,29.30
2019-04-06T14:12:32.873Z,29.40
2019-04-06T14:15:40.178Z,29.30
2019-04-06T14:18:57.548Z,29.20
2019-04-06T14:22:08.416Z,29.30
2019-04-06T14:25:18.573Z,29.20
2019-04-06T14:28:36.123Z,29.20
2019-04-06T14:31:39.933Z,29.30
2019-04-06T14:34:48.529Z,29.20
2019-04-06T14:37:52.750Z,29.20
2019-04-06T14:40:55.519Z,29.20
2019-04-06T14:44:05.746Z,29.20
2019-04-06T14:47:17.574Z,29.20
2019-04-06T14:50:28.802Z,29.30
2019-04-06T14:53:40.527Z,29.20
2019-04-06T14:56:58.477Z,29.20
2019-04-06T14:59:59.610Z,29.20
2019-04-06T15:03:08.938Z,29.20
2019-04-06T15:06:22.863Z,29.30
2019-04-06T15:09:36.957Z,29.30
2019-04-06T15:12:53.908Z,29.30
2019-04-06T15:15:57.949Z,29.40
2019-04-06T15:18:57.666Z,29.60
2019-04-06T15:22:14.828Z,29.60
2019-04-06T15:25:29.422Z,29.70
2019-04-06T15:29:00.867Z,29.70
2019-04-06T15:32:05.395Z,29.80
2019-04-06T15:35:16.430Z,29.80
2019-04-06T15:38:18.088Z,29.80
2019-04-06T15:41:28.309Z,29.90
2019-04-06T15:44:37.842Z,29.90
2019-04-06T15:47:48.194Z,29.90
2019-04-06T15:50:47.527Z,30.00
2019-04-06T15:54:04.414Z,30.00
2019-04-06T15:57:15.553Z,30.00
2019-04-06T16:00:34.054Z,30.00
2019-04-06T16:03:48.435Z,30.00
2019-04-06T16:06:57.653Z,30.00
2019-04-06T16:10:08.705Z,30.00
2019-04-06T16:13:11.454Z,30.00
2019-04-06T16:16:14.559Z,30.00
2019-04-06T16:19:31.040Z,30.00
2019-04-06T16:22:48.621Z,30.00
2019-04-06T16:26:10.862Z,30.00
2019-04-06T16:29:26.982Z,30.00
2019-04-06T16:32:39.897Z,30.00
2019-04-06T16:35:50.392Z,30.00
2019-04-06T16:39:00.514Z,30.00
2019-04-06T16:42:25.308Z,30.00
2019-04-06T16:45:34.196Z,30.00
2019-04-06T16:48:43.289Z,30.00
2019-04-06T16:51:52.987Z,30.10
2019-04-06T16:55:10.908Z,30.10
2019-04-06T16:58:36.884Z,30.10
2019-04-06T17:01:54.676Z,30.00
2019-04-06T17:04:57.953Z,30.00
2019-04-06T17:08:11.867Z,30.10
2019-04-06T17:11:32.367Z,30.10
2019-04-06T17:14:43.702Z,30.10
2019-04-06T17:18:00.663Z,30.10
2019-04-06T17:21:17.569Z,30.10
2019-04-06T17:24:15.507Z,30.10
2019-04-06T17:27:24.646Z,30.10
2019-04-06T17:30:34.218Z,30.10
2019-04-06T17:33:43.628Z,30.10
2019-04-06T17:37:03.904Z,30.10
2019-04-06T17:40:24.675Z,30.10
2019-04-06T17:43:35.543Z,30.10
2019-04-06T17:47:01.905Z,30.10
2019-04-06T17:50:14.849Z,30.10
2019-04-06T17:53:28.261Z,30.10
2019-04-06T17:56:46.596Z,30.10
2019-04-06T17:59:57.690Z,30.10
2019-04-06T18:03:10.253Z,30.10
2019-04-06T18:06:20.074Z,30.10
2019-04-06T18:09:46.161Z,30.10
2019-04-06T18:13:09.153Z,30.10
2019-04-06T18:16:01.840Z,30.10
2019-04-06T18:18:55.449Z,30.10
2019-04-06T18:21:48.524Z,30.10
2019-04-06T18:24:41.067Z,30.10
2019-04-06T18:27:33.881Z,30.10
2019-04-06T18:30:27.917Z,30.10
2019-04-06T18:33:24.892Z,30.10
2019-04-06T18:36:17.609Z,30.10
2019-04-06T18:39:11.607Z,30.10
2019-04-06T18:42:03.950Z,30.10
2019-04-06T18:44:56.365Z,30.10
2019-04-06T18:47:49.226Z,30.10
2019-04-06T18:50:43.448Z,30.10
2019-04-06T18:53:36.956Z,30.10
2019-04-06T18:56:30.016Z,30.10
2019-04-06T18:59:23.167Z,30.10
2019-04-06T19:02:16.387Z,30.10
2019-04-06T19:05:09.994Z,30.10
2019-04-06T19:08:03.098Z,30.10
2019-04-06T19:10:56.634Z,30.10
2019-04-06T19:13:49.889Z,30.10
2019-04-06T19:16:44.271Z,30.10
2019-04-06T19:19:37.403Z,30.10
2019-04-06T19:22:30.237Z,30.10
2019-04-06T19:25:23.107Z,30.10
2019-04-06T19:28:16.012Z,30.10
2019-04-06T19:31:08.648Z,30.10
2019-04-06T19:34:02.996Z,30.10
2019-04-06T19:36:56.070Z,30.10
2019-04-06T19:39:48.799Z,30.10
2019-04-06T19:42:41.260Z,30.10
2019-04-06T19:45:34.701Z,30.10
2019-04-06T19:48:28.439Z,30.10
2019-04-06T19:51:21.436Z,30.10
2019-04-06T19:54:14.177Z,30.10
2019-04-06T19:57:07.341Z,30.10
2019-04-06T20:00:00.008Z,30.10
2019-04-06T20:02:52.931Z,30.10
2019-04-06T20:05:45.488Z,30.10
2019-04-06T20:08:38.732Z,30.10
2019-04-06T20:11:32.059Z,30.10
2019-04-06T20:14:25.301Z,30.10
2019-04-06T20:17:18.994Z,30.10
2019-04-06T20:20:12.121Z,30.10
2019-04-06T20:23:04.847Z,30.10
2019-04-06T20:25:57.746Z,30.10
2019-04-06T20:28:51.159Z,30.10
2019-04-06T20:31:44.669Z,30.10
2019-04-06T20:34:37.660Z,30.10
2019-04-06T20:37:30.786Z,30.10
2019-04-06T20:40:23.572Z,30.10
2019-04-06T20:43:16.823Z,30.10
2019-04-06T20:46:09.727Z,30.10
2019-04-06T20:49:02.209Z,30.10
2019-04-06T20:51:54.636Z,30.10
2019-04-06T20:54:47.314Z,30.10
2019-04-06T20:57:40.477Z,30.20
2019-04-06T21:00:33.865Z,30.10
2019-04-06T21:03:26.607Z,30.10
2019-04-06T21:06:19.173Z,30.10
2019-04-06T21:09:15.531Z,30.10
2019-04-06T21:12:08.104Z,30.10
2019-04-06T21:15:01.101Z,30.10
2019-04-06T21:17:55.291Z,30.10
2019-04-06T21:20:48.034Z,30.10
2019-04-06T21:23:40.830Z,30.10
2019-04-06T21:26:33.593Z,30.20
2019-04-06T21:29:26.118Z,30.10
2019-04-06T21:32:18.545Z,30.10
2019-04-06T21:35:12.539Z,30.10
2019-04-06T21:38:05.525Z,30.10
2019-04-06T21:40:58.241Z,30.20
2019-04-06T21:43:51.007Z,30.20
2019-04-06T21:46:43.717Z,30.10
2019-04-06T21:49:37.194Z,30.20
2019-04-06T21:52:30.937Z,30.20
2019-04-06T21:55:24.064Z,30.10
2019-04-06T21:58:17.707Z,30.10
2019-04-06T22:01:11.924Z,30.10
2019-04-06T22:04:05.392Z,30.10
2019-04-06T22:06:58.312Z,30.10
2019-04-06T22:09:51.362Z,30.10
2019-04-06T22:12:45.180Z,30.10
2019-04-06T22:15:38.795Z,30.10
2019-04-06T22:18:32.785Z,30.20
2019-04-06T22:21:27.123Z,30.10
2019-04-06T22:24:20.414Z,30.10
2019-04-06T22:27:13.592Z,30.10
2019-04-06T22:30:08.230Z,30.10
2019-04-06T22:33:01.039Z,30.20
2019-04-06T22:35:54.187Z,30.10
2019-04-06T22:38:47.297Z,30.10
2019-04-06T22:41:40.537Z,30.10
2019-04-06T22:44:33.499Z,30.10
2019-04-06T22:47:26.309Z,30.10
2019-04-06T22:50:19.043Z,30.20
2019-04-06T22:53:12.204Z,30.10
2019-04-06T22:56:05.572Z,30.10
2019-04-06T22:58:58.192Z,30.10
2019-04-06T23:01:50.960Z,30.10
2019-04-06T23:04:59.231Z,30.10
2019-04-06T23:07:53.369Z,30.20
2019-04-06T23:10:46.561Z,30.20
2019-04-06T23:13:40.225Z,30.10
2019-04-06T23:16:33.206Z,30.10
2019-04-06T23:19:27.115Z,30.10
2019-04-06T23:22:20.534Z,30.20
2019-04-06T23:25:13.434Z,30.20
2019-04-06T23:28:05.927Z,30.10
2019-04-06T23:30:58.824Z,30.10
2019-04-06T23:33:51.731Z,30.20
2019-04-06T23:36:44.782Z,30.10
2019-04-06T23:39:37.801Z,30.10
2019-04-06T23:42:30.887Z,30.20
2019-04-06T23:45:23.509Z,30.20
2019-04-06T23:48:16.463Z,30.10
2019-04-06T23:51:09.462Z,30.10
2019-04-06T23:54:01.967Z,30.20
2019-04-06T23:56:54.424Z,30.10
2019-04-06T23:59:46.774Z,30.20
